Time;durP1;ratioP1;P1;durP2;ratioP2;P2;SDS_P1;SDS_P2;PMS_P1;PMS_P2;Temp;Humidity;BMP_temperature;BMP_pressure;BME280_temperature;BME280_humidity;BME280_pressure;Samples;Min_cycle;Max_cycle;Signal;HPM_P1;HPM_P2
2022/03/24 00:01:51;;;;;;;45.17;27.23;;;8.70;56.60;;;;;;5023280;28;25067;-73
2022/03/24 00:04:17;;;;;;;58.35;28.50;;;8.80;57.00;;;;;;5025165;28;25101;-74
2022/03/24 00:06:42;;;;;;;53.28;27.67;;;8.80;56.50;;;;;;5028896;28;25140;-72
2022/03/24 00:09:08;;;;;;;54.28;28.02;;;8.60;56.40;;;;;;5040143;28;25019;-74
2022/03/24 00:11:34;;;;;;;55.70;27.83;;;8.50;58.10;;;;;;5048859;28;25088;-72
2022/03/24 00:14:00;;;;;;;53.53;29.00;;;8.50;58.10;;;;;;5028648;28;25057;-74
2022/03/24 00:16:26;;;;;;;47.90;28.33;;;8.40;58.70;;;;;;5027284;28;25054;-73
2022/03/24 00:18:54;;;;;;;47.25;28.90;;;8.40;59.00;;;;;;5028007;28;25079;-74
2022/03/24 00:21:19;;;;;;;50.72;28.70;;;8.40;59.60;;;;;;5028519;28;25151;-72
2022/03/24 00:23:45;;;;;;;50.10;27.60;;;8.40;59.60;;;;;;5026800;28;25071;-74
2022/03/24 00:26:12;;;;;;;52.35;27.63;;;8.40;59.70;;;;;;5046863;28;25052;-72
2022/03/24 00:28:38;;;;;;;50.50;27.50;;;8.50;59.60;;;;;;5034551;28;25094;-73
2022/03/24 00:31:03;;;;;;;46.33;26.48;;;8.50;59.30;;;;;;5058699;28;25135;-74
2022/03/24 00:33:29;;;;;;;51.38;28.92;;;8.50;58.90;;;;;;5034614;28;25094;-72
2022/03/24 00:35:55;;;;;;;50.95;28.27;;;8.40;60.00;;;;;;5047549;28;25093;-75
2022/03/24 00:38:21;;;;;;;61.10;29.67;;;8.30;59.30;;;;;;5029135;28;25061;-73
2022/03/24 00:40:46;;;;;;;55.92;29.50;;;8.20;60.60;;;;;;5047195;28;25066;-75
2022/03/24 00:43:12;;;;;;;45.90;27.33;;;8.10;60.50;;;;;;5028325;28;25129;-73
2022/03/24 00:45:41;;;;;;;48.63;27.85;;;8.10;61.30;;;;;;5045463;28;25084;-73
2022/03/24 00:48:08;;;;;;;44.53;27.90;;;8.30;61.90;;;;;;5046018;28;25057;-73
2022/03/24 00:50:35;;;;;;;52.58;27.50;;;8.40;61.30;;;;;;5029324;28;25067;-74
2022/03/24 00:53:01;;;;;;;54.15;29.00;;;8.50;60.50;;;;;;5049281;28;25135;-74
2022/03/24 00:55:27;;;;;;;54.90;29.70;;;8.40;60.30;;;;;;5012429;28;25070;-74
2022/03/24 00:57:53;;;;;;;54.97;29.63;;;8.30;61.20;;;;;;5024692;28;25072;-74
2022/03/24 01:00:20;;;;;;;52.00;29.98;;;8.20;62.30;;;;;;5028651;28;25078;-72
2022/03/24 01:02:51;;;;;;;53.20;30.83;;;8.10;62.50;;;;;;5029556;28;25143;-73
2022/03/24 01:05:18;;;;;;;56.23;31.13;;;8.10;62.90;;;;;;5031484;28;25151;-72
2022/03/24 01:07:45;;;;;;;54.15;30.85;;;8.00;64.00;;;;;;5028986;28;25062;-73
2022/03/24 01:10:13;;;;;;;51.85;31.20;;;8.00;64.20;;;;;;5029606;28;25149;-74
2022/03/24 01:12:40;;;;;;;60.47;30.92;;;7.90;64.30;;;;;;5013941;28;25089;-73
2022/03/24 01:15:07;;;;;;;53.50;30.75;;;7.90;65.50;;;;;;5030506;28;25140;-73
2022/03/24 01:17:34;;;;;;;53.47;30.40;;;7.80;65.70;;;;;;5047591;28;25113;-73
2022/03/24 01:20:00;;;;;;;52.22;29.15;;;7.90;66.70;;;;;;5033810;28;25059;-73
2022/03/24 01:22:26;;;;;;;51.88;29.23;;;8.10;65.40;;;;;;5026932;28;25066;-73
2022/03/24 01:24:51;;;;;;;57.22;30.00;;;8.10;65.70;;;;;;5030536;28;25091;-75
2022/03/24 01:27:18;;;;;;;61.80;32.45;;;8.10;65.90;;;;;;5047370;28;25064;-73
2022/03/24 01:29:44;;;;;;;53.85;30.48;;;8.00;66.10;;;;;;5020626;28;25094;-73
2022/03/24 01:32:10;;;;;;;45.03;28.55;;;7.90;66.50;;;;;;5010440;28;25178;-72
2022/03/24 01:34:37;;;;;;;56.55;31.40;;;7.90;67.00;;;;;;5028214;28;25143;-72
2022/03/24 01:37:03;;;;;;;55.78;30.92;;;7.90;67.00;;;;;;5032543;28;25083;-72
2022/03/24 01:39:29;;;;;;;55.53;31.02;;;7.90;67.40;;;;;;5031528;28;25081;-74
2022/03/24 01:41:54;;;;;;;57.40;32.10;;;7.90;66.70;;;;;;5030384;28;25062;-74
2022/03/24 01:44:21;;;;;;;68.05;31.92;;;7.80;67.70;;;;;;5027678;28;25077;-74
2022/03/24 01:47:00;;;;;;;51.75;31.63;;;7.70;67.70;;;;;;5018591;28;25065;-74
2022/03/24 01:49:28;;;;;;;59.78;31.98;;;7.70;68.10;;;;;;5037572;28;25120;-73
2022/03/24 01:51:55;;;;;;;56.80;33.17;;;7.70;68.30;;;;;;5040957;28;25076;-74
2022/03/24 01:54:25;;;;;;;55.38;33.70;;;7.60;69.30;;;;;;5045033;28;25162;-74
2022/03/24 01:56:52;;;;;;;60.00;32.92;;;7.60;69.80;;;;;;5030031;28;25142;-73
2022/03/24 01:59:19;;;;;;;60.53;31.60;;;7.50;70.60;;;;;;5036226;28;25128;-75
2022/03/24 02:01:46;;;;;;;61.05;33.55;;;7.50;70.60;;;;;;5046465;28;25074;-74
2022/03/24 02:04:14;;;;;;;63.22;34.28;;;7.50;71.40;;;;;;5047335;28;25069;-73
2022/03/24 02:06:40;;;;;;;55.58;31.73;;;7.60;71.10;;;;;;5029514;28;25045;-73
2022/03/24 02:09:07;;;;;;;58.28;32.75;;;7.50;70.80;;;;;;5040793;28;25060;-73
2022/03/24 02:11:36;;;;;;;55.55;32.25;;;7.30;71.50;;;;;;5030676;28;25075;-75
2022/03/24 02:14:03;;;;;;;56.42;32.45;;;7.20;72.40;;;;;;5033947;28;25058;-75
2022/03/24 02:16:38;;;;;;;55.78;31.40;;;7.20;72.50;;;;;;5034483;28;25126;-73
2022/03/24 02:19:16;;;;;;;58.10;32.28;;;7.20;73.10;;;;;;5038573;28;25083;-73
2022/03/24 02:21:42;;;;;;;59.65;33.20;;;7.20;73.60;;;;;;5031288;28;25107;-75
2022/03/24 02:24:10;;;;;;;56.88;32.47;;;7.20;73.40;;;;;;5042050;28;25061;-73
2022/03/24 02:26:37;;;;;;;49.55;31.42;;;7.20;73.30;;;;;;5047231;28;25062;-73
2022/03/24 02:29:07;;;;;;;60.40;31.40;;;7.20;72.90;;;;;;5031629;28;25111;-73
2022/03/24 02:31:38;;;;;;;61.35;33.72;;;7.20;73.40;;;;;;5028155;28;25081;-72
2022/03/24 02:36:49;;;;;;;51.75;30.80;;;7.20;73.30;;;;;;5049365;28;25404;-74
2022/03/24 02:39:16;;;;;;;56.17;32.55;;;7.30;73.60;;;;;;5017186;28;25058;-75
2022/03/24 02:41:53;;;;;;;50.33;32.20;;;7.40;73.50;;;;;;5014626;28;25109;-73
2022/03/24 02:44:23;;;;;;;54.92;32.10;;;7.50;73.20;;;;;;5034658;28;25093;-72
2022/03/24 02:46:51;;;;;;;53.80;33.50;;;7.60;71.90;;;;;;5053360;28;25067;-72
2022/03/24 02:49:22;;;;;;;62.92;36.35;;;7.50;72.50;;;;;;5050633;28;25097;-74
2022/03/24 02:51:52;;;;;;;60.88;34.92;;;7.40;72.60;;;;;;5042603;28;25067;-73
2022/03/24 02:54:19;;;;;;;68.55;37.38;;;7.30;72.70;;;;;;5025827;28;25071;-73
2022/03/24 02:56:45;;;;;;;63.25;36.55;;;7.20;73.80;;;;;;5046235;28;25076;-74
2022/03/24 02:59:12;;;;;;;61.55;35.97;;;7.20;74.80;;;;;;5039592;28;25069;-74
2022/03/24 03:01:43;;;;;;;64.25;36.40;;;7.10;74.80;;;;;;5058068;28;25068;-72
2022/03/24 03:04:09;;;;;;;62.90;37.15;;;7.00;75.50;;;;;;5047485;28;25075;-73
2022/03/24 03:06:36;;;;;;;70.40;37.13;;;6.90;76.30;;;;;;5043448;28;25064;-72
2022/03/24 03:09:04;;;;;;;62.33;36.78;;;6.90;76.20;;;;;;5021609;28;25051;-72
2022/03/24 03:11:33;;;;;;;68.70;36.63;;;7.00;76.90;;;;;;5028527;28;25084;-72
2022/03/24 03:14:02;;;;;;;69.78;37.05;;;7.00;76.20;;;;;;5053549;28;25161;-73
2022/03/24 03:16:28;;;;;;;74.60;38.30;;;7.00;76.40;;;;;;5064012;28;25077;-73
2022/03/24 03:18:55;;;;;;;63.25;37.40;;;6.90;77.70;;;;;;5058323;28;25095;-71
2022/03/24 03:21:21;;;;;;;68.65;38.67;;;7.00;78.10;;;;;;5052658;28;25065;-72
2022/03/24 03:23:46;;;;;;;69.97;39.92;;;6.90;77.40;;;;;;5034787;28;25088;-73
2022/03/24 03:26:16;;;;;;;69.03;39.80;;;6.90;77.70;;;;;;5030672;28;25102;-74
2022/03/24 03:28:42;;;;;;;67.95;41.08;;;6.80;78.60;;;;;;5031030;28;25139;-74
2022/03/24 03:31:10;;;;;;;65.10;38.33;;;6.80;79.40;;;;;;5035054;28;25068;-73
2022/03/24 03:33:36;;;;;;;69.75;40.45;;;6.90;78.60;;;;;;5057251;28;25098;-74
2022/03/24 03:36:06;;;;;;;73.03;42.25;;;6.80;79.20;;;;;;5055075;28;25076;-75
2022/03/24 03:38:33;;;;;;;69.63;39.10;;;6.80;79.30;;;;;;5056175;28;25087;-75
2022/03/24 03:41:00;;;;;;;66.95;38.20;;;6.70;79.90;;;;;;5053838;28;25066;-76
2022/03/24 03:43:26;;;;;;;73.15;41.65;;;6.70;79.60;;;;;;5055745;28;25076;-73
2022/03/24 03:45:52;;;;;;;72.78;40.95;;;6.80;79.60;;;;;;5033820;28;25178;-73
2022/03/24 03:48:17;;;;;;;75.57;43.15;;;6.80;80.10;;;;;;5039922;28;25084;-74
2022/03/24 03:50:43;;;;;;;85.47;45.47;;;6.80;79.30;;;;;;5051361;28;25101;-74
2022/03/24 03:53:09;;;;;;;81.63;46.15;;;6.70;79.40;;;;;;5021746;28;25053;-72
2022/03/24 03:55:36;;;;;;;75.25;44.58;;;6.70;80.30;;;;;;5030086;28;25146;-73
2022/03/24 03:58:03;;;;;;;83.45;44.88;;;6.70;79.90;;;;;;5042630;28;25099;-72
2022/03/24 04:03:29;;;;;;;93.88;49.40;;;6.60;81.50;;;;;;5030597;28;25080;-73
2022/03/24 04:05:56;;;;;;;85.53;47.80;;;6.60;82.70;;;;;;5029857;28;25151;-74
2022/03/24 04:08:22;;;;;;;86.28;47.47;;;6.50;82.60;;;;;;5029276;28;25142;-72
2022/03/24 04:10:49;;;;;;;85.10;47.58;;;6.60;83.30;;;;;;5045069;28;25080;-73
2022/03/24 04:13:20;;;;;;;95.75;49.42;;;6.50;83.20;;;;;;5033895;28;25132;-73
2022/03/24 04:15:46;;;;;;;84.63;47.15;;;6.50;83.10;;;;;;5028862;28;25098;-74
2022/03/24 04:18:12;;;;;;;94.75;49.33;;;6.50;82.90;;;;;;5028588;28;25142;-73
2022/03/24 04:20:39;;;;;;;92.88;52.28;;;6.40;82.90;;;;;;5028509;28;25066;-74
2022/03/24 04:23:05;;;;;;;86.90;50.10;;;6.50;83.80;;;;;;5018642;28;25094;-74
2022/03/24 04:25:32;;;;;;;102.05;53.60;;;6.60;83.50;;;;;;5029651;28;25110;-73
2022/03/24 04:27:58;;;;;;;102.88;53.60;;;6.50;83.20;;;;;;5031612;28;25133;-73
2022/03/24 04:30:26;;;;;;;102.03;53.30;;;6.40;83.20;;;;;;5047535;28;25069;-75
2022/03/24 04:32:52;;;;;;;98.05;54.42;;;6.50;83.20;;;;;;5025743;28;25153;-74
2022/03/24 04:35:18;;;;;;;92.20;53.00;;;6.50;83.90;;;;;;5026818;28;25055;-74
2022/03/24 04:37:44;;;;;;;113.03;60.72;;;6.50;83.60;;;;;;5041660;28;25072;-74
2022/03/24 04:40:11;;;;;;;113.75;58.35;;;6.50;83.60;;;;;;5030489;28;25080;-73
2022/03/24 04:42:41;;;;;;;116.22;62.38;;;6.50;83.90;;;;;;5032072;28;25054;-73
2022/03/24 04:45:06;;;;;;;110.80;59.17;;;6.50;85.30;;;;;;5027701;28;25140;-72
2022/03/24 04:47:34;;;;;;;122.05;60.53;;;6.40;85.50;;;;;;5010296;28;25086;-74
2022/03/24 04:50:00;;;;;;;121.05;62.67;;;6.40;85.60;;;;;;5030864;28;25075;-73
2022/03/24 04:52:26;;;;;;;127.18;63.78;;;6.30;86.90;;;;;;5046606;28;25084;-73
2022/03/24 04:54:51;;;;;;;120.85;61.97;;;6.30;87.30;;;;;;5047524;28;25083;-72
2022/03/24 04:57:17;;;;;;;112.85;61.70;;;6.40;87.30;;;;;;5041659;28;25073;-74
2022/03/24 04:59:42;;;;;;;117.63;61.72;;;6.40;86.90;;;;;;5031878;28;25070;-73
2022/03/24 05:02:09;;;;;;;122.90;63.03;;;6.30;86.60;;;;;;5024615;28;25094;-74
2022/03/24 05:04:35;;;;;;;114.30;61.88;;;6.30;87.50;;;;;;5012280;28;25070;-74
2022/03/24 05:07:01;;;;;;;117.35;62.72;;;6.30;88.00;;;;;;5043067;28;25047;-72
2022/03/24 05:09:26;;;;;;;127.60;62.83;;;6.30;88.20;;;;;;5048463;28;25055;-73
2022/03/24 05:11:52;;;;;;;110.95;59.30;;;6.20;87.80;;;;;;5039061;28;25078;-74
2022/03/24 05:14:17;;;;;;;113.68;61.08;;;6.30;88.20;;;;;;5028198;28;25122;-72
2022/03/24 05:16:43;;;;;;;119.70;62.08;;;6.40;89.00;;;;;;5035848;28;25087;-73
2022/03/24 05:19:08;;;;;;;121.93;63.47;;;6.30;87.00;;;;;;5048169;28;25110;-73
2022/03/24 05:21:34;;;;;;;118.55;61.97;;;6.20;87.50;;;;;;5025134;28;25079;-73
2022/03/24 05:24:00;;;;;;;116.50;61.85;;;6.20;87.50;;;;;;5028252;28;25066;-75
2022/03/24 05:26:26;;;;;;;121.07;64.57;;;6.20;87.30;;;;;;5026445;28;25077;-72
2022/03/24 05:28:53;;;;;;;114.05;61.45;;;6.30;87.60;;;;;;5028265;28;25051;-72
2022/03/24 05:31:20;;;;;;;122.43;62.85;;;6.30;87.40;;;;;;5036835;28;25066;-72
2022/03/24 05:33:46;;;;;;;128.77;64.38;;;6.30;86.40;;;;;;5031966;28;25160;-72
2022/03/24 05:36:12;;;;;;;120.53;64.18;;;6.10;86.70;;;;;;5028777;28;25156;-75
2022/03/24 05:38:38;;;;;;;124.95;64.28;;;6.10;88.20;;;;;;5025304;28;25081;-74
2022/03/24 05:41:04;;;;;;;131.07;66.07;;;6.10;88.10;;;;;;5017344;28;25093;-72
2022/03/24 05:43:31;;;;;;;129.90;62.10;;;6.10;88.00;;;;;;5020061;28;25048;-72
2022/03/24 05:45:56;;;;;;;120.55;62.97;;;6.10;88.10;;;;;;5030230;28;25132;-72
2022/03/24 05:48:23;;;;;;;120.47;63.17;;;6.10;87.80;;;;;;5024225;28;25070;-73
2022/03/24 05:50:48;;;;;;;135.32;69.93;;;6.10;88.10;;;;;;5028872;28;25070;-73
2022/03/24 05:53:14;;;;;;;128.32;66.22;;;6.10;89.00;;;;;;5024655;28;25055;-73
2022/03/24 05:55:41;;;;;;;132.88;65.72;;;6.20;89.20;;;;;;5020670;28;25052;-73
2022/03/24 05:58:07;;;;;;;123.07;65.10;;;6.10;88.80;;;;;;5031172;28;25055;-71
2022/03/24 06:00:36;;;;;;;144.07;70.40;;;6.10;89.50;;;;;;5033583;28;25083;-71
2022/03/24 06:03:03;;;;;;;124.50;64.80;;;6.20;89.70;;;;;;5034544;28;25091;-71
2022/03/24 06:05:29;;;;;;;127.50;67.90;;;6.10;90.00;;;;;;5057457;28;25098;-73
2022/03/24 06:07:56;;;;;;;132.25;67.78;;;6.10;90.20;;;;;;5050595;28;25107;-72
2022/03/24 06:10:22;;;;;;;138.93;68.75;;;6.10;90.30;;;;;;5038955;28;25073;-73
2022/03/24 06:12:47;;;;;;;124.20;65.95;;;6.10;90.60;;;;;;5037944;28;25079;-73
2022/03/24 06:15:15;;;;;;;123.50;63.00;;;6.20;90.80;;;;;;5033062;28;25078;-73
2022/03/24 06:17:41;;;;;;;127.13;65.93;;;6.20;90.40;;;;;;5028557;28;25081;-73
2022/03/24 06:20:08;;;;;;;131.00;64.35;;;6.30;90.20;;;;;;5033169;28;25080;-74
2022/03/24 06:22:54;;;;;;;119.90;65.20;;;6.30;90.10;;;;;;5029111;28;25054;-74
2022/03/24 06:25:20;;;;;;;131.88;66.55;;;6.30;90.30;;;;;;5030779;28;25063;-74
2022/03/24 06:27:52;;;;;;;126.70;65.85;;;6.30;90.50;;;;;;5025284;28;25097;-74
2022/03/24 06:30:19;;;;;;;115.68;63.90;;;6.40;90.40;;;;;;5027295;28;25102;-74
2022/03/24 06:32:45;;;;;;;118.68;65.28;;;6.40;90.20;;;;;;5031221;28;25054;-77
2022/03/24 06:35:11;;;;;;;126.45;65.75;;;6.50;90.10;;;;;;5035821;28;25075;-73
2022/03/24 06:37:40;;;;;;;119.50;65.47;;;6.50;90.00;;;;;;5037385;28;25102;-73
2022/03/24 06:40:10;;;;;;;125.50;66.70;;;6.60;90.10;;;;;;5035196;28;25074;-73
2022/03/24 06:42:36;;;;;;;128.25;67.18;;;6.60;90.30;;;;;;5034833;28;25074;-76
2022/03/24 06:45:04;;;;;;;117.05;64.25;;;6.70;90.30;;;;;;5017428;28;25084;-74
2022/03/24 06:47:30;;;;;;;116.28;63.33;;;6.80;90.20;;;;;;5034861;28;25074;-74
2022/03/24 06:49:55;;;;;;;128.85;64.28;;;7.00;89.50;;;;;;5035907;28;25105;-75
2022/03/24 06:52:21;;;;;;;123.70;67.53;;;7.00;88.40;;;;;;5036999;28;25056;-74
2022/03/24 06:54:46;;;;;;;118.68;65.13;;;7.20;88.30;;;;;;5036544;28;25055;-75
2022/03/24 06:57:14;;;;;;;136.98;71.97;;;7.30;87.80;;;;;;5039192;28;25051;-74
2022/03/24 06:59:40;;;;;;;113.03;65.97;;;7.40;87.20;;;;;;5042116;28;25068;-74
2022/03/24 07:02:07;;;;;;;127.70;69.13;;;7.60;86.90;;;;;;5031055;28;25062;-76
2022/03/24 07:04:32;;;;;;;126.70;69.93;;;7.70;86.40;;;;;;5051242;28;25095;-73
2022/03/24 07:06:59;;;;;;;134.68;71.80;;;7.80;86.90;;;;;;5051244;28;25085;-74
2022/03/24 07:09:24;;;;;;;143.35;76.53;;;8.00;87.10;;;;;;5052348;28;25068;-74
2022/03/24 07:11:50;;;;;;;138.10;76.18;;;8.10;87.60;;;;;;5052333;28;25059;-74
2022/03/24 07:14:15;;;;;;;136.85;75.45;;;8.20;87.10;;;;;;5051957;28;25070;-74
2022/03/24 07:16:41;;;;;;;137.35;73.88;;;8.40;87.40;;;;;;5051246;28;25079;-75
2022/03/24 07:19:08;;;;;;;140.32;75.15;;;8.50;86.90;;;;;;5052351;28;25081;-74
2022/03/24 07:21:34;;;;;;;145.43;76.40;;;8.60;86.50;;;;;;5034469;28;25068;-75
2022/03/24 07:24:00;;;;;;;133.27;73.63;;;8.70;86.30;;;;;;5051968;28;25067;-76
2022/03/24 07:26:25;;;;;;;137.90;74.95;;;8.90;85.50;;;;;;5052556;28;25115;-74
2022/03/24 07:28:51;;;;;;;129.98;70.38;;;9.00;84.30;;;;;;5035851;28;25048;-76
2022/03/24 07:31:19;;;;;;;135.68;71.75;;;9.20;83.40;;;;;;5053152;28;25124;-75
2022/03/24 07:33:45;;;;;;;130.25;69.90;;;9.30;82.40;;;;;;5053910;28;25062;-75
2022/03/24 07:36:13;;;;;;;136.82;69.00;;;9.30;80.90;;;;;;5037176;28;25062;-75
2022/03/24 07:38:39;;;;;;;131.63;69.82;;;9.40;79.70;;;;;;5055272;28;25047;-75
2022/03/24 07:41:05;;;;;;;124.18;67.88;;;9.50;78.10;;;;;;5054169;28;25054;-75
2022/03/24 07:43:30;;;;;;;136.90;69.25;;;9.50;76.60;;;;;;5054206;28;25048;-75
2022/03/24 07:45:56;;;;;;;130.20;69.00;;;9.60;75.70;;;;;;5054728;28;25063;-76
2022/03/24 07:48:27;;;;;;;122.70;67.80;;;9.80;75.00;;;;;;5054173;28;25061;-76
2022/03/24 07:50:55;;;;;;;129.57;69.00;;;10.00;73.40;;;;;;5055861;28;25061;-73
2022/03/24 07:53:37;;;;;;;117.18;66.82;;;10.20;71.60;;;;;;5049058;28;25077;-73
2022/03/24 07:56:03;;;;;;;125.53;64.75;;;10.40;69.80;;;;;;5047768;28;25088;-73
2022/03/24 07:58:29;;;;;;;111.00;62.17;;;10.50;68.20;;;;;;5046449;28;25065;-74
2022/03/24 08:00:57;;;;;;;93.40;54.42;;;10.70;67.00;;;;;;5028943;28;25159;-73
2022/03/24 08:03:23;;;;;;;70.20;44.08;;;10.80;62.80;;;;;;5048461;28;25074;-73
2022/03/24 08:05:50;;;;;;;65.47;39.30;;;10.80;52.20;;;;;;5045061;28;25074;-74
2022/03/24 08:08:16;;;;;;;61.30;38.33;;;10.70;44.40;;;;;;5041662;28;25075;-73
2022/03/24 08:10:46;;;;;;;69.28;40.28;;;10.80;43.30;;;;;;5042843;28;25087;-75
2022/03/24 08:13:15;;;;;;;62.83;40.90;;;11.00;43.00;;;;;;5042886;28;25142;-73
2022/03/24 08:15:41;;;;;;;68.18;41.00;;;11.10;43.80;;;;;;5046927;28;25075;-75
2022/03/24 08:18:08;;;;;;;65.20;40.75;;;11.30;43.20;;;;;;5043694;28;25066;-71
2022/03/24 08:20:35;;;;;;;67.45;40.50;;;11.50;41.60;;;;;;5026784;28;25093;-75
2022/03/24 08:23:02;;;;;;;67.47;40.83;;;11.70;40.90;;;;;;5048363;28;25050;-74
2022/03/24 08:25:28;;;;;;;66.22;39.38;;;11.90;37.30;;;;;;5025291;28;25048;-76
2022/03/24 08:27:53;;;;;;;70.60;40.85;;;12.00;36.80;;;;;;5042044;28;25065;-74
2022/03/24 08:30:19;;;;;;;63.25;39.85;;;12.30;37.40;;;;;;5040725;28;25101;-72
2022/03/24 08:32:44;;;;;;;57.70;36.45;;;12.50;37.00;;;;;;5040342;28;25067;-75
2022/03/24 08:35:10;;;;;;;57.53;35.30;;;12.60;29.80;;;;;;5038416;28;25060;-72
2022/03/24 08:37:36;;;;;;;50.45;32.85;;;12.70;26.90;;;;;;5037513;28;25067;-74
2022/03/24 08:40:02;;;;;;;51.80;32.92;;;12.70;20.80;;;;;;5036315;28;25062;-74
2022/03/24 08:42:28;;;;;;;55.92;33.78;;;13.00;22.70;;;;;;5039401;28;25071;-74
2022/03/24 08:44:53;;;;;;;51.55;33.13;;;13.60;25.60;;;;;;5044653;28;25062;-74
2022/03/24 08:47:19;;;;;;;50.47;32.05;;;14.10;19.00;;;;;;5027260;28;25112;-74
2022/03/24 08:49:44;;;;;;;48.17;32.67;;;14.60;16.20;;;;;;5045174;28;25070;-72
2022/03/24 08:52:17;;;;;;;46.55;33.10;;;14.70;12.10;;;;;;5044347;28;25041;-75
2022/03/24 08:54:42;;;;;;;47.80;31.58;;;15.20;10.10;;;;;;5044238;28;25081;-74
2022/03/24 08:57:08;;;;;;;50.92;32.25;;;15.50;8.40;;;;;;5045521;28;25061;-73
2022/03/24 08:59:35;;;;;;;52.55;34.17;;;15.60;9.90;;;;;;5046227;28;25113;-73
2022/03/24 09:02:00;;;;;;;49.25;33.75;;;15.80;10.90;;;;;;5045685;28;25112;-75
2022/03/24 09:04:26;;;;;;;49.58;32.75;;;16.20;8.10;;;;;;5046679;28;25067;-73
2022/03/24 09:06:55;;;;;;;54.08;35.60;;;16.80;7.30;;;;;;5053322;28;25061;-73
2022/03/24 09:09:22;;;;;;;57.60;35.10;;;16.30;4.00;;;;;;5055648;28;25058;-76
2022/03/24 09:11:49;;;;;;;57.60;36.88;;;16.00;6.70;;;;;;5055579;28;25090;-77
2022/03/24 09:14:16;;;;;;;55.22;35.45;;;16.20;5.50;;;;;;5056048;28;25067;-77
2022/03/24 09:16:42;;;;;;;56.55;37.42;;;16.10;4.90;;;;;;5056338;28;25058;-75
2022/03/24 09:19:07;;;;;;;52.33;38.30;;;16.00;5.70;;;;;;5056080;28;25113;-76
2022/03/24 09:21:33;;;;;;;58.22;36.38;;;16.00;7.50;;;;;;5057934;28;25083;-75
2022/03/24 09:23:59;;;;;;;58.53;37.08;;;15.70;5.90;;;;;;5050063;28;25082;-73
2022/03/24 09:26:25;;;;;;;64.18;37.30;;;15.70;6.80;;;;;;5049980;28;25051;-73
2022/03/24 09:28:52;;;;;;;54.42;35.10;;;16.10;6.40;;;;;;5057836;28;25060;-76
2022/03/24 09:31:19;;;;;;;48.67;34.13;;;15.80;1.00;;;;;;5059366;28;25059;-77
2022/03/24 09:33:44;;;;;;;47.90;32.03;;;15.40;1.00;;;;;;5039652;28;25076;-78
2022/03/24 09:36:11;;;;;;;39.90;28.77;;;15.60;1.00;;;;;;5057079;28;25064;-77
2022/03/24 09:38:36;;;;;;;50.78;31.35;;;16.10;1.00;;;;;;5056048;28;25072;-74
2022/03/24 09:41:02;;;;;;;45.72;31.65;;;16.10;1.00;;;;;;5040699;28;25106;-75
2022/03/24 09:43:30;;;;;;;49.00;31.30;;;15.50;1.00;;;;;;5038104;28;25077;-74
2022/03/24 09:45:55;;;;;;;53.58;30.42;;;15.60;1.00;;;;;;5037519;28;25076;-75
2022/03/24 09:48:21;;;;;;;49.42;31.10;;;16.10;1.00;;;;;;5038668;28;25062;-75
2022/03/24 09:50:48;;;;;;;48.05;30.58;;;16.60;1.00;;;;;;5036374;28;25058;-73
2022/03/24 09:53:15;;;;;;;37.22;26.73;;;16.70;1.00;;;;;;5017665;28;25125;-75
2022/03/24 09:55:42;;;;;;;43.38;27.08;;;16.60;1.00;;;;;;5035525;28;25096;-74
2022/03/24 09:58:09;;;;;;;42.65;26.45;;;16.70;1.00;;;;;;5035206;28;25051;-73
2022/03/24 10:00:35;;;;;;;36.60;25.77;;;16.40;1.00;;;;;;5034846;28;25063;-73
2022/03/24 10:03:15;;;;;;;40.55;24.02;;;16.10;1.00;;;;;;5034665;28;25077;-74
2022/03/24 10:05:55;;;;;;;37.30;26.23;;;16.10;1.00;;;;;;5035062;28;25066;-74
2022/03/24 10:08:20;;;;;;;38.50;24.17;;;16.00;1.00;;;;;;5034686;28;25116;-72
2022/03/24 10:10:46;;;;;;;33.03;25.17;;;15.90;1.00;;;;;;5034070;28;25150;-72
2022/03/24 10:13:12;;;;;;;40.60;27.52;;;16.10;1.00;;;;;;5034259;28;25158;-73
2022/03/24 10:15:38;;;;;;;46.33;29.33;;;16.20;1.00;;;;;;5017158;28;25054;-76
2022/03/24 10:18:04;;;;;;;53.63;28.40;;;15.90;1.00;;;;;;5039111;28;25061;-74
2022/03/24 10:20:30;;;;;;;39.78;26.65;;;15.90;1.00;;;;;;5036777;28;25086;-73
2022/03/24 10:22:59;;;;;;;32.88;24.63;;;15.90;1.00;;;;;;5036177;28;25063;-76
2022/03/24 10:25:25;;;;;;;34.92;25.35;;;16.10;1.00;;;;;;5035682;28;24921;-77
2022/03/24 10:28:11;;;;;;;37.72;26.08;;;16.20;1.00;;;;;;5035687;28;25076;-73
2022/03/24 10:30:45;;;;;;;31.52;23.90;;;16.50;1.00;;;;;;5035899;28;25060;-73
2022/03/24 10:33:28;;;;;;;37.22;24.13;;;16.80;1.00;;;;;;5017480;28;25159;-76
2022/03/24 10:36:18;;;;;;;41.47;25.63;;;16.80;1.00;;;;;;5034282;28;25079;-73
2022/03/24 10:38:46;;;;;;;44.97;26.02;;;16.70;1.00;;;;;;5036233;28;25075;-75
2022/03/24 10:41:22;;;;;;;42.80;26.13;;;16.60;1.00;;;;;;5035599;28;25073;-73
2022/03/24 10:43:50;;;;;;;37.90;26.70;;;16.60;1.00;;;;;;5034456;28;25065;-73
2022/03/24 10:46:21;;;;;;;37.45;26.58;;;16.80;1.00;;;;;;5036430;28;25080;-74
2022/03/24 10:48:48;;;;;;;38.10;26.48;;;16.80;1.00;;;;;;5035351;28;25056;-73
2022/03/24 10:51:33;;;;;;;36.58;26.42;;;16.90;1.00;;;;;;5036385;28;25104;-76
2022/03/24 10:54:17;;;;;;;39.38;24.90;;;17.00;1.00;;;;;;5035979;28;24845;-74
2022/03/24 10:57:03;;;;;;;44.22;26.65;;;17.10;1.00;;;;;;5037201;28;25136;-71
2022/03/24 10:59:38;;;;;;;40.33;28.58;;;17.00;1.00;;;;;;5038049;28;25065;-73
2022/03/24 11:02:04;;;;;;;41.15;27.60;;;17.20;1.00;;;;;;5036505;28;25052;-73
2022/03/24 11:04:30;;;;;;;41.00;26.02;;;17.10;1.00;;;;;;5045959;28;25072;-74
2022/03/24 11:06:56;;;;;;;33.65;25.27;;;17.20;1.00;;;;;;5046555;28;25080;-72
2022/03/24 11:09:28;;;;;;;37.15;25.60;;;17.40;1.00;;;;;;5054924;28;25062;-74
2022/03/24 11:12:31;;;;;;;38.28;26.77;;;17.70;1.00;;;;;;5056999;28;25069;-74
2022/03/24 11:15:06;;;;;;;29.70;21.23;;;17.70;1.00;;;;;;5056657;28;25105;-76
2022/03/24 11:17:37;;;;;;;41.90;21.50;;;17.90;1.00;;;;;;5056786;28;25069;-75
2022/03/24 11:20:25;;;;;;;37.53;24.98;;;17.90;1.00;;;;;;5053869;28;25089;-77
2022/03/24 11:23:03;;;;;;;38.83;23.48;;;17.90;1.00;;;;;;5044236;28;25064;-72
2022/03/24 11:25:30;;;;;;;37.05;23.05;;;18.10;1.00;;;;;;5035623;28;25081;-75
2022/03/24 11:27:56;;;;;;;34.97;23.02;;;18.40;1.00;;;;;;5002082;28;25055;-73
2022/03/24 11:30:23;;;;;;;33.40;21.83;;;18.60;1.00;;;;;;5033722;28;25076;-74
2022/03/24 11:32:50;;;;;;;34.10;23.70;;;19.10;1.00;;;;;;5033352;28;25102;-74
2022/03/24 11:35:16;;;;;;;44.78;23.30;;;18.50;1.00;;;;;;5016151;28;25069;-73
2022/03/24 11:37:43;;;;;;;34.45;22.20;;;18.40;1.00;;;;;;5033611;28;25128;-75
2022/03/24 11:40:30;;;;;;;35.38;24.05;;;18.60;1.00;;;;;;5033711;28;25060;-73
2022/03/24 11:43:25;;;;;;;39.75;24.23;;;19.00;1.00;;;;;;5034080;28;25166;-73
2022/03/24 11:46:11;;;;;;;42.33;22.92;;;18.90;1.00;;;;;;5014270;28;25084;-73
2022/03/24 11:48:39;;;;;;;36.08;22.88;;;19.20;1.00;;;;;;5034101;28;25077;-73
2022/03/24 11:51:25;;;;;;;40.20;19.08;;;19.10;1.00;;;;;;5033009;28;25068;-74
2022/03/24 11:54:05;;;;;;;33.22;17.45;;;19.50;1.00;;;;;;5032185;28;25099;-72
2022/03/24 11:56:32;;;;;;;35.05;21.15;;;19.40;1.00;;;;;;5033574;28;25136;-76
2022/03/24 11:58:57;;;;;;;35.67;18.08;;;19.50;1.00;;;;;;5032872;28;25064;-75
2022/03/24 12:01:26;;;;;;;37.28;21.48;;;19.50;1.00;;;;;;5032858;28;25161;-74
2022/03/24 12:04:09;;;;;;;28.48;13.43;;;19.00;1.00;;;;;;5032208;28;25051;-74
2022/03/24 12:06:41;;;;;;;35.28;17.30;;;18.50;1.00;;;;;;5032143;28;25093;-74
2022/03/24 12:09:09;;;;;;;37.65;18.02;;;18.70;1.00;;;;;;5032677;28;25071;-73
2022/03/24 12:11:38;;;;;;;29.27;19.20;;;19.20;1.00;;;;;;5031956;28;25132;-72
2022/03/24 12:14:16;;;;;;;36.75;21.52;;;19.50;1.00;;;;;;5031991;28;25070;-75
2022/03/24 12:16:47;;;;;;;35.58;21.55;;;19.80;1.00;;;;;;5013799;28;25073;-74
2022/03/24 12:19:41;;;;;;;38.10;20.55;;;19.70;1.00;;;;;;5031448;28;25087;-74
2022/03/24 12:22:25;;;;;;;32.33;22.00;;;19.80;1.00;;;;;;5032485;28;25051;-73
2022/03/24 12:24:57;;;;;;;36.15;21.25;;;20.00;1.00;;;;;;5033645;28;25112;-73
2022/03/24 12:27:23;;;;;;;36.65;18.00;;;19.80;1.00;;;;;;5013018;28;25153;-75
2022/03/24 12:30:12;;;;;;;39.85;20.45;;;20.40;1.00;;;;;;5029350;28;25105;-74
2022/03/24 12:33:05;;;;;;;40.78;19.50;;;20.00;1.00;;;;;;5030186;28;25171;-75
2022/03/24 12:35:51;;;;;;;34.92;19.48;;;20.00;1.00;;;;;;5028669;28;25080;-75
2022/03/24 12:38:30;;;;;;;32.22;19.13;;;20.70;1.00;;;;;;5027902;28;25069;-72
2022/03/24 12:41:09;;;;;;;33.78;21.85;;;20.00;1.00;;;;;;5027966;28;25054;-72
2022/03/24 12:43:57;;;;;;;33.95;21.92;;;20.40;1.00;;;;;;5027978;28;25128;-73
2022/03/24 12:46:36;;;;;;;39.35;22.73;;;20.60;1.00;;;;;;5028157;28;25062;-72